sensor_id;sensor_type;location;lat;lon;timestamp;temperature;humidity
11894;DHT22;6006;49.696;8.662;2023-12-20T00:00:35;5.20;99.90
11894;DHT22;6006;49.696;8.662;2023-12-20T00:03:03;5.20;99.90
11894;DHT22;6006;49.696;8.662;2023-12-20T00:05:30;5.20;99.90
11894;DHT22;6006;49.696;8.662;2023-12-20T00:07:57;5.20;99.90
11894;DHT22;6006;49.696;8.662;2023-12-20T00:10:24;5.20;99.90
11894;DHT22;6006;49.696;8.662;2023-12-20T00:12:53;5.20;99.90
11894;DHT22;6006;49.696;8.662;2023-12-20T00:15:19;5.20;99.90
11894;DHT22;6006;49.696;8.662;2023-12-20T00:17:46;5.10;99.90
11894;DHT22;6006;49.696;8.662;2023-12-20T00:20:13;5.10;99.90
11894;DHT22;6006;49.696;8.662;2023-12-20T00:22:40;5.20;99.90
11894;DHT22;6006;49.696;8.662;2023-12-20T00:25:07;5.20;99.90
11894;DHT22;6006;49.696;8.662;2023-12-20T00:27:35;5.20;99.90
11894;DHT22;6006;49.696;8.662;2023-12-20T00:30:03;5.20;99.90
11894;DHT22;6006;49.696;8.662;2023-12-20T00:32:30;5.20;99.90
11894;DHT22;6006;49.696;8.662;2023-12-20T00:34:57;5.20;99.90
11894;DHT22;6006;49.696;8.662;2023-12-20T00:37:24;5.10;99.90
11894;DHT22;6006;49.696;8.662;2023-12-20T00:39:51;5.10;99.90
11894;DHT22;6006;49.696;8.662;2023-12-20T00:42:18;5.10;99.90
11894;DHT22;6006;49.696;8.662;2023-12-20T00:44:45;5.10;99.90
11894;DHT22;6006;49.696;8.662;2023-12-20T00:47:13;5.20;99.90
11894;DHT22;6006;49.696;8.662;2023-12-20T00:49:40;5.10;99.90
11894;DHT22;6006;49.696;8.662;2023-12-20T00:52:06;5.10;99.90
11894;DHT22;6006;49.696;8.662;2023-12-20T00:54:33;5.20;99.90
11894;DHT22;6006;49.696;8.662;2023-12-20T00:57:00;5.10;99.90
11894;DHT22;6006;49.696;8.662;2023-12-20T00:59:27;5.10;99.90
11894;DHT22;6006;49.696;8.662;2023-12-20T01:01:54;5.10;99.90
11894;DHT22;6006;49.696;8.662;2023-12-20T01:04:22;5.10;99.90
11894;DHT22;6006;49.696;8.662;2023-12-20T01:06:49;5.10;99.90
11894;DHT22;6006;49.696;8.662;2023-12-20T01:09:16;5.10;99.90
11894;DHT22;6006;49.696;8.662;2023-12-20T01:11:44;5.10;99.90
11894;DHT22;6006;49.696;8.662;2023-12-20T01:14:11;5.10;99.90
11894;DHT22;6006;49.696;8.662;2023-12-20T01:16:38;5.10;99.90
11894;DHT22;6006;49.696;8.662;2023-12-20T01:19:05;5.10;99.90
11894;DHT22;6006;49.696;8.662;2023-12-20T01:21:34;5.10;99.90
11894;DHT22;6006;49.696;8.662;2023-12-20T01:24:00;5.10;99.90
11894;DHT22;6006;49.696;8.662;2023-12-20T01:26:27;5.10;99.90
11894;DHT22;6006;49.696;8.662;2023-12-20T01:28:54;5.10;99.90
11894;DHT22;6006;49.696;8.662;2023-12-20T01:31:21;5.10;99.90
11894;DHT22;6006;49.696;8.662;2023-12-20T01:33:48;5.10;99.90
11894;DHT22;6006;49.696;8.662;2023-12-20T01:36:15;5.00;99.90
11894;DHT22;6006;49.696;8.662;2023-12-20T01:38:43;5.00;99.90
11894;DHT22;6006;49.696;8.662;2023-12-20T01:41:10;5.00;99.90
11894;DHT22;6006;49.696;8.662;2023-12-20T01:43:37;5.00;99.90
11894;DHT22;6006;49.696;8.662;2023-12-20T01:46:04;5.00;99.90
11894;DHT22;6006;49.696;8.662;2023-12-20T01:48:31;5.00;99.90
11894;DHT22;6006;49.696;8.662;2023-12-20T01:50:59;5.00;99.90
11894;DHT22;6006;49.696;8.662;2023-12-20T01:53:27;5.00;99.90
11894;DHT22;6006;49.696;8.662;2023-12-20T01:55:58;5.00;99.90
11894;DHT22;6006;49.696;8.662;2023-12-20T01:58:26;5.00;99.90
11894;DHT22;6006;49.696;8.662;2023-12-20T02:00:53;5.00;99.90
11894;DHT22;6006;49.696;8.662;2023-12-20T02:03:20;5.00;99.90
11894;DHT22;6006;49.696;8.662;2023-12-20T02:05:48;5.10;99.90
11894;DHT22;6006;49.696;8.662;2023-12-20T02:08:15;5.10;99.90
11894;DHT22;6006;49.696;8.662;2023-12-20T02:10:42;5.10;99.90
11894;DHT22;6006;49.696;8.662;2023-12-20T02:13:10;5.10;99.90
11894;DHT22;6006;49.696;8.662;2023-12-20T02:15:37;5.10;99.90
11894;DHT22;6006;49.696;8.662;2023-12-20T02:18:04;5.10;99.90
11894;DHT22;6006;49.696;8.662;2023-12-20T02:20:31;5.10;99.90
11894;DHT22;6006;49.696;8.662;2023-12-20T02:22:59;5.10;99.90
11894;DHT22;6006;49.696;8.662;2023-12-20T02:25:26;5.10;99.90
11894;DHT22;6006;49.696;8.662;2023-12-20T02:27:53;5.10;99.90
11894;DHT22;6006;49.696;8.662;2023-12-20T02:30:20;5.10;99.90
11894;DHT22;6006;49.696;8.662;2023-12-20T02:32:47;5.10;99.90
11894;DHT22;6006;49.696;8.662;2023-12-20T02:35:15;5.10;99.90
11894;DHT22;6006;49.696;8.662;2023-12-20T02:37:42;5.10;99.90
11894;DHT22;6006;49.696;8.662;2023-12-20T02:40:10;5.10;99.90
11894;DHT22;6006;49.696;8.662;2023-12-20T02:42:37;5.10;99.90
11894;DHT22;6006;49.696;8.662;2023-12-20T02:45:05;5.10;99.90
11894;DHT22;6006;49.696;8.662;2023-12-20T02:47:32;5.10;99.90
11894;DHT22;6006;49.696;8.662;2023-12-20T02:49:59;5.10;99.90
11894;DHT22;6006;49.696;8.662;2023-12-20T02:52:27;5.10;99.90
11894;DHT22;6006;49.696;8.662;2023-12-20T02:54:54;5.10;99.90
11894;DHT22;6006;49.696;8.662;2023-12-20T02:57:22;5.10;99.90
11894;DHT22;6006;49.696;8.662;2023-12-20T02:59:49;5.10;99.90
11894;DHT22;6006;49.696;8.662;2023-12-20T03:02:16;5.10;99.90
11894;DHT22;6006;49.696;8.662;2023-12-20T03:04:43;5.10;99.90
11894;DHT22;6006;49.696;8.662;2023-12-20T03:07:09;5.10;99.90
11894;DHT22;6006;49.696;8.662;2023-12-20T03:09:37;5.10;99.90
11894;DHT22;6006;49.696;8.662;2023-12-20T03:12:04;5.10;99.90
11894;DHT22;6006;49.696;8.662;2023-12-20T03:14:33;5.10;99.90
11894;DHT22;6006;49.696;8.662;2023-12-20T03:16:59;5.10;99.90
11894;DHT22;6006;49.696;8.662;2023-12-20T03:19:26;5.10;99.90
11894;DHT22;6006;49.696;8.662;2023-12-20T03:21:54;5.10;99.90
11894;DHT22;6006;49.696;8.662;2023-12-20T03:24:21;5.10;99.90
11894;DHT22;6006;49.696;8.662;2023-12-20T03:26:48;5.10;99.90
11894;DHT22;6006;49.696;8.662;2023-12-20T03:29:15;5.10;99.90
11894;DHT22;6006;49.696;8.662;2023-12-20T03:31:43;5.10;99.90
11894;DHT22;6006;49.696;8.662;2023-12-20T03:34:10;5.10;99.90
11894;DHT22;6006;49.696;8.662;2023-12-20T03:36:37;5.10;99.90
11894;DHT22;6006;49.696;8.662;2023-12-20T03:39:04;5.10;99.90
11894;DHT22;6006;49.696;8.662;2023-12-20T03:41:31;5.20;99.90
11894;DHT22;6006;49.696;8.662;2023-12-20T03:43:58;5.20;99.90
11894;DHT22;6006;49.696;8.662;2023-12-20T03:46:25;5.20;99.90
11894;DHT22;6006;49.696;8.662;2023-12-20T03:48:53;5.10;99.90
11894;DHT22;6006;49.696;8.662;2023-12-20T03:51:20;5.10;99.90
11894;DHT22;6006;49.696;8.662;2023-12-20T03:53:47;5.10;99.90
11894;DHT22;6006;49.696;8.662;2023-12-20T03:56:14;5.10;99.90
11894;DHT22;6006;49.696;8.662;2023-12-20T03:58:41;5.10;99.90
11894;DHT22;6006;49.696;8.662;2023-12-20T04:01:09;5.10;99.90
11894;DHT22;6006;49.696;8.662;2023-12-20T04:03:38;5.10;99.90
11894;DHT22;6006;49.696;8.662;2023-12-20T04:06:07;5.10;99.90
11894;DHT22;6006;49.696;8.662;2023-12-20T04:08:34;5.10;99.90
11894;DHT22;6006;49.696;8.662;2023-12-20T04:11:01;5.10;99.90
11894;DHT22;6006;49.696;8.662;2023-12-20T04:13:27;5.10;99.90
11894;DHT22;6006;49.696;8.662;2023-12-20T04:15:54;5.10;99.90
11894;DHT22;6006;49.696;8.662;2023-12-20T04:18:21;5.10;99.90
11894;DHT22;6006;49.696;8.662;2023-12-20T04:20:48;5.10;99.90
11894;DHT22;6006;49.696;8.662;2023-12-20T04:23:16;5.10;99.90
11894;DHT22;6006;49.696;8.662;2023-12-20T04:25:43;5.10;99.90
11894;DHT22;6006;49.696;8.662;2023-12-20T04:28:10;5.20;99.90
11894;DHT22;6006;49.696;8.662;2023-12-20T04:30:37;5.20;99.90
11894;DHT22;6006;49.696;8.662;2023-12-20T04:33:04;5.20;99.90
11894;DHT22;6006;49.696;8.662;2023-12-20T04:35:31;5.20;99.90
11894;DHT22;6006;49.696;8.662;2023-12-20T04:38:00;5.20;99.90
11894;DHT22;6006;49.696;8.662;2023-12-20T04:40:28;5.20;99.90
11894;DHT22;6006;49.696;8.662;2023-12-20T04:42:55;5.20;99.90
11894;DHT22;6006;49.696;8.662;2023-12-20T04:45:22;5.20;99.90
11894;DHT22;6006;49.696;8.662;2023-12-20T04:47:50;5.20;99.90
11894;DHT22;6006;49.696;8.662;2023-12-20T04:50:17;5.20;99.90
11894;DHT22;6006;49.696;8.662;2023-12-20T04:52:45;5.20;99.90
11894;DHT22;6006;49.696;8.662;2023-12-20T04:55:12;5.20;99.90
11894;DHT22;6006;49.696;8.662;2023-12-20T04:57:40;5.20;99.90
11894;DHT22;6006;49.696;8.662;2023-12-20T05:00:09;5.10;99.90
11894;DHT22;6006;49.696;8.662;2023-12-20T05:02:36;5.10;99.90
11894;DHT22;6006;49.696;8.662;2023-12-20T05:05:03;5.20;99.90
11894;DHT22;6006;49.696;8.662;2023-12-20T05:07:30;5.20;99.90
11894;DHT22;6006;49.696;8.662;2023-12-20T05:09:58;5.20;99.90
11894;DHT22;6006;49.696;8.662;2023-12-20T05:12:24;5.20;99.90
11894;DHT22;6006;49.696;8.662;2023-12-20T05:14:53;5.20;99.90
11894;DHT22;6006;49.696;8.662;2023-12-20T05:17:19;5.20;99.90
11894;DHT22;6006;49.696;8.662;2023-12-20T05:19:46;5.20;99.90
11894;DHT22;6006;49.696;8.662;2023-12-20T05:22:13;5.20;99.90
11894;DHT22;6006;49.696;8.662;2023-12-20T05:24:39;5.20;99.90
11894;DHT22;6006;49.696;8.662;2023-12-20T05:27:06;5.20;99.90
11894;DHT22;6006;49.696;8.662;2023-12-20T05:29:33;5.20;99.90
11894;DHT22;6006;49.696;8.662;2023-12-20T05:32:01;5.20;99.90
11894;DHT22;6006;49.696;8.662;2023-12-20T05:34:30;5.20;99.90
11894;DHT22;6006;49.696;8.662;2023-12-20T05:36:57;5.20;99.90
11894;DHT22;6006;49.696;8.662;2023-12-20T05:39:24;5.20;99.90
11894;DHT22;6006;49.696;8.662;2023-12-20T05:41:51;5.20;99.90
11894;DHT22;6006;49.696;8.662;2023-12-20T05:44:18;5.20;99.90
11894;DHT22;6006;49.696;8.662;2023-12-20T05:46:45;5.20;99.90
11894;DHT22;6006;49.696;8.662;2023-12-20T05:49:13;5.20;99.90
11894;DHT22;6006;49.696;8.662;2023-12-20T05:51:40;5.20;99.90
11894;DHT22;6006;49.696;8.662;2023-12-20T05:54:07;5.20;99.90
11894;DHT22;6006;49.696;8.662;2023-12-20T05:56:34;5.10;99.90
11894;DHT22;6006;49.696;8.662;2023-12-20T05:59:01;5.10;99.90
11894;DHT22;6006;49.696;8.662;2023-12-20T06:01:27;5.10;99.90
11894;DHT22;6006;49.696;8.662;2023-12-20T06:03:53;5.10;99.90
11894;DHT22;6006;49.696;8.662;2023-12-20T06:06:22;5.10;99.90
11894;DHT22;6006;49.696;8.662;2023-12-20T06:08:49;5.00;99.90
11894;DHT22;6006;49.696;8.662;2023-12-20T06:11:16;5.00;99.90
11894;DHT22;6006;49.696;8.662;2023-12-20T06:13:43;4.90;99.90
11894;DHT22;6006;49.696;8.662;2023-12-20T06:16:09;4.80;99.90
11894;DHT22;6006;49.696;8.662;2023-12-20T06:18:36;4.70;99.90
11894;DHT22;6006;49.696;8.662;2023-12-20T06:21:04;4.40;99.90
11894;DHT22;6006;49.696;8.662;2023-12-20T06:23:34;4.30;99.90
11894;DHT22;6006;49.696;8.662;2023-12-20T06:26:01;4.10;99.90
11894;DHT22;6006;49.696;8.662;2023-12-20T06:28:27;4.10;99.90
11894;DHT22;6006;49.696;8.662;2023-12-20T06:30:54;4.00;99.90
11894;DHT22;6006;49.696;8.662;2023-12-20T06:33:22;4.00;99.90
11894;DHT22;6006;49.696;8.662;2023-12-20T06:35:49;4.00;99.90
11894;DHT22;6006;49.696;8.662;2023-12-20T06:38:18;4.00;99.90
11894;DHT22;6006;49.696;8.662;2023-12-20T06:40:46;3.90;99.90
11894;DHT22;6006;49.696;8.662;2023-12-20T06:43:13;3.90;99.90
11894;DHT22;6006;49.696;8.662;2023-12-20T06:45:40;3.80;99.90
11894;DHT22;6006;49.696;8.662;2023-12-20T06:48:07;3.80;99.90
11894;DHT22;6006;49.696;8.662;2023-12-20T06:50:35;3.70;99.90
11894;DHT22;6006;49.696;8.662;2023-12-20T06:53:05;3.60;99.90
11894;DHT22;6006;49.696;8.662;2023-12-20T06:55:32;3.50;99.90
11894;DHT22;6006;49.696;8.662;2023-12-20T06:58:01;3.50;99.90
11894;DHT22;6006;49.696;8.662;2023-12-20T07:00:28;3.30;99.90
11894;DHT22;6006;49.696;8.662;2023-12-20T07:02:55;3.10;99.90
11894;DHT22;6006;49.696;8.662;2023-12-20T07:05:22;3.00;99.90
11894;DHT22;6006;49.696;8.662;2023-12-20T07:07:49;2.90;99.90
11894;DHT22;6006;49.696;8.662;2023-12-20T07:10:16;2.80;99.90
11894;DHT22;6006;49.696;8.662;2023-12-20T07:12:42;2.80;99.90
11894;DHT22;6006;49.696;8.662;2023-12-20T07:15:11;2.90;99.90
11894;DHT22;6006;49.696;8.662;2023-12-20T07:17:37;2.70;99.90
11894;DHT22;6006;49.696;8.662;2023-12-20T07:20:05;2.70;99.90
11894;DHT22;6006;49.696;8.662;2023-12-20T07:22:35;2.70;99.90
11894;DHT22;6006;49.696;8.662;2023-12-20T07:25:02;2.60;99.90
11894;DHT22;6006;49.696;8.662;2023-12-20T07:27:29;2.60;99.90
11894;DHT22;6006;49.696;8.662;2023-12-20T07:29:56;2.50;99.90
11894;DHT22;6006;49.696;8.662;2023-12-20T07:32:24;2.50;99.90
11894;DHT22;6006;49.696;8.662;2023-12-20T07:34:51;2.40;99.90
11894;DHT22;6006;49.696;8.662;2023-12-20T07:37:19;2.40;99.90
11894;DHT22;6006;49.696;8.662;2023-12-20T07:39:46;2.30;99.90
11894;DHT22;6006;49.696;8.662;2023-12-20T07:42:13;2.40;99.90
11894;DHT22;6006;49.696;8.662;2023-12-20T07:44:40;2.50;99.90
11894;DHT22;6006;49.696;8.662;2023-12-20T07:47:07;2.60;99.90
11894;DHT22;6006;49.696;8.662;2023-12-20T07:49:35;2.70;99.90
11894;DHT22;6006;49.696;8.662;2023-12-20T07:52:02;2.70;99.90
11894;DHT22;6006;49.696;8.662;2023-12-20T07:54:29;2.70;99.90
11894;DHT22;6006;49.696;8.662;2023-12-20T07:56:57;2.70;99.90
11894;DHT22;6006;49.696;8.662;2023-12-20T07:59:24;2.80;99.90
11894;DHT22;6006;49.696;8.662;2023-12-20T08:01:51;2.80;99.90
11894;DHT22;6006;49.696;8.662;2023-12-20T08:04:18;2.90;99.90
11894;DHT22;6006;49.696;8.662;2023-12-20T08:06:46;3.00;99.90
11894;DHT22;6006;49.696;8.662;2023-12-20T08:09:13;3.00;99.90
11894;DHT22;6006;49.696;8.662;2023-12-20T08:11:40;3.10;99.90
11894;DHT22;6006;49.696;8.662;2023-12-20T08:14:11;3.10;99.90
11894;DHT22;6006;49.696;8.662;2023-12-20T08:16:38;3.20;99.90
11894;DHT22;6006;49.696;8.662;2023-12-20T08:19:05;3.20;99.90
11894;DHT22;6006;49.696;8.662;2023-12-20T08:21:31;3.30;99.90
11894;DHT22;6006;49.696;8.662;2023-12-20T08:24:00;3.40;99.90
11894;DHT22;6006;49.696;8.662;2023-12-20T08:26:27;3.50;99.90
11894;DHT22;6006;49.696;8.662;2023-12-20T08:28:54;3.70;99.90
11894;DHT22;6006;49.696;8.662;2023-12-20T08:31:21;3.70;99.90
11894;DHT22;6006;49.696;8.662;2023-12-20T08:33:48;3.80;99.90
11894;DHT22;6006;49.696;8.662;2023-12-20T08:36:15;3.80;99.90
11894;DHT22;6006;49.696;8.662;2023-12-20T08:38:44;3.90;99.90
11894;DHT22;6006;49.696;8.662;2023-12-20T08:41:13;4.10;99.90
11894;DHT22;6006;49.696;8.662;2023-12-20T08:43:39;4.20;99.90
11894;DHT22;6006;49.696;8.662;2023-12-20T08:46:07;4.20;99.90
11894;DHT22;6006;49.696;8.662;2023-12-20T08:48:35;4.30;99.90
11894;DHT22;6006;49.696;8.662;2023-12-20T08:51:03;4.40;99.90
11894;DHT22;6006;49.696;8.662;2023-12-20T08:53:30;4.50;99.90
11894;DHT22;6006;49.696;8.662;2023-12-20T08:55:56;4.50;99.90
11894;DHT22;6006;49.696;8.662;2023-12-20T08:58:28;4.60;99.90
11894;DHT22;6006;49.696;8.662;2023-12-20T09:00:55;4.70;99.90
11894;DHT22;6006;49.696;8.662;2023-12-20T09:03:22;4.70;99.90
11894;DHT22;6006;49.696;8.662;2023-12-20T09:05:49;4.80;99.90
11894;DHT22;6006;49.696;8.662;2023-12-20T09:08:16;4.90;99.90
11894;DHT22;6006;49.696;8.662;2023-12-20T09:10:43;4.90;99.90
11894;DHT22;6006;49.696;8.662;2023-12-20T09:13:11;4.90;99.90
11894;DHT22;6006;49.696;8.662;2023-12-20T09:15:39;4.90;99.90
11894;DHT22;6006;49.696;8.662;2023-12-20T09:18:06;4.90;99.90
11894;DHT22;6006;49.696;8.662;2023-12-20T09:20:33;5.00;99.90
11894;DHT22;6006;49.696;8.662;2023-12-20T09:23:00;5.00;99.90
11894;DHT22;6006;49.696;8.662;2023-12-20T09:25:27;5.10;99.90
11894;DHT22;6006;49.696;8.662;2023-12-20T09:27:55;5.10;99.90
11894;DHT22;6006;49.696;8.662;2023-12-20T09:30:22;5.10;99.90
11894;DHT22;6006;49.696;8.662;2023-12-20T09:32:51;5.20;99.90
11894;DHT22;6006;49.696;8.662;2023-12-20T09:35:18;5.20;99.90
11894;DHT22;6006;49.696;8.662;2023-12-20T09:37:44;5.20;99.90
11894;DHT22;6006;49.696;8.662;2023-12-20T09:40:13;5.20;99.90
11894;DHT22;6006;49.696;8.662;2023-12-20T09:42:47;5.20;99.90
11894;DHT22;6006;49.696;8.662;2023-12-20T09:45:16;5.30;99.90
11894;DHT22;6006;49.696;8.662;2023-12-20T09:47:46;5.30;99.90
11894;DHT22;6006;49.696;8.662;2023-12-20T09:50:14;5.30;99.90
11894;DHT22;6006;49.696;8.662;2023-12-20T09:52:43;5.30;99.90
11894;DHT22;6006;49.696;8.662;2023-12-20T09:55:12;5.40;99.90
11894;DHT22;6006;49.696;8.662;2023-12-20T09:57:40;5.40;99.90
11894;DHT22;6006;49.696;8.662;2023-12-20T10:00:08;5.40;99.90
11894;DHT22;6006;49.696;8.662;2023-12-20T10:02:38;5.40;99.90
11894;DHT22;6006;49.696;8.662;2023-12-20T10:05:08;5.50;99.90
11894;DHT22;6006;49.696;8.662;2023-12-20T10:07:40;5.40;99.90
11894;DHT22;6006;49.696;8.662;2023-12-20T10:10:07;5.40;99.90
11894;DHT22;6006;49.696;8.662;2023-12-20T10:12:35;5.50;99.90
11894;DHT22;6006;49.696;8.662;2023-12-20T10:15:02;5.50;99.90
11894;DHT22;6006;49.696;8.662;2023-12-20T10:17:28;5.50;99.90
11894;DHT22;6006;49.696;8.662;2023-12-20T10:19:55;5.60;99.90
11894;DHT22;6006;49.696;8.662;2023-12-20T10:22:22;5.60;99.90
11894;DHT22;6006;49.696;8.662;2023-12-20T10:24:50;5.60;99.90
11894;DHT22;6006;49.696;8.662;2023-12-20T10:27:18;5.60;99.90
11894;DHT22;6006;49.696;8.662;2023-12-20T10:29:45;5.70;99.90
11894;DHT22;6006;49.696;8.662;2023-12-20T10:32:33;5.70;99.90
11894;DHT22;6006;49.696;8.662;2023-12-20T10:35:00;5.70;99.90
11894;DHT22;6006;49.696;8.662;2023-12-20T10:37:28;5.60;99.90
11894;DHT22;6006;49.696;8.662;2023-12-20T10:39:57;5.60;99.90
11894;DHT22;6006;49.696;8.662;2023-12-20T10:42:26;5.70;99.90
11894;DHT22;6006;49.696;8.662;2023-12-20T10:44:53;5.70;99.90
11894;DHT22;6006;49.696;8.662;2023-12-20T10:47:20;5.70;99.90
11894;DHT22;6006;49.696;8.662;2023-12-20T10:49:47;5.70;99.90
11894;DHT22;6006;49.696;8.662;2023-12-20T10:52:14;5.80;20.50
11894;DHT22;6006;49.696;8.662;2023-12-20T10:54:44;5.80;40.60
11894;DHT22;6006;49.696;8.662;2023-12-20T10:57:13;5.80;69.20
11894;DHT22;6006;49.696;8.662;2023-12-20T10:59:41;5.90;20.60
11894;DHT22;6006;49.696;8.662;2023-12-20T11:02:08;5.90;97.60
11894;DHT22;6006;49.696;8.662;2023-12-20T11:04:40;5.80;99.90
11894;DHT22;6006;49.696;8.662;2023-12-20T11:07:18;5.90;1.00
11894;DHT22;6006;49.696;8.662;2023-12-20T11:09:54;5.90;1.00
11894;DHT22;6006;49.696;8.662;2023-12-20T11:12:35;5.90;1.00
11894;DHT22;6006;49.696;8.662;2023-12-20T11:15:04;5.90;24.70
11894;DHT22;6006;49.696;8.662;2023-12-20T11:17:32;5.90;1.00
11894;DHT22;6006;49.696;8.662;2023-12-20T11:20:09;5.90;1.00
11894;DHT22;6006;49.696;8.662;2023-12-20T11:22:40;6.00;1.00
11894;DHT22;6006;49.696;8.662;2023-12-20T11:25:17;6.00;1.00
11894;DHT22;6006;49.696;8.662;2023-12-20T11:28:06;6.10;1.00
11894;DHT22;6006;49.696;8.662;2023-12-20T11:30:41;6.10;1.00
11894;DHT22;6006;49.696;8.662;2023-12-20T11:33:08;6.10;1.00
11894;DHT22;6006;49.696;8.662;2023-12-20T11:35:35;6.00;1.00
11894;DHT22;6006;49.696;8.662;2023-12-20T11:38:02;6.10;1.00
11894;DHT22;6006;49.696;8.662;2023-12-20T11:40:34;6.10;1.00
11894;DHT22;6006;49.696;8.662;2023-12-20T11:43:03;6.10;99.90
11894;DHT22;6006;49.696;8.662;2023-12-20T11:45:30;6.20;99.90
11894;DHT22;6006;49.696;8.662;2023-12-20T11:47:58;6.20;1.00
11894;DHT22;6006;49.696;8.662;2023-12-20T11:50:25;6.10;1.00
11894;DHT22;6006;49.696;8.662;2023-12-20T11:52:52;6.10;1.00
11894;DHT22;6006;49.696;8.662;2023-12-20T11:55:19;6.20;1.00
11894;DHT22;6006;49.696;8.662;2023-12-20T11:57:46;6.10;1.00
11894;DHT22;6006;49.696;8.662;2023-12-20T12:00:16;6.10;1.00
11894;DHT22;6006;49.696;8.662;2023-12-20T12:02:43;6.00;1.00
11894;DHT22;6006;49.696;8.662;2023-12-20T12:05:10;6.00;1.00
11894;DHT22;6006;49.696;8.662;2023-12-20T12:07:36;6.00;1.00
11894;DHT22;6006;49.696;8.662;2023-12-20T12:10:04;6.10;99.90
11894;DHT22;6006;49.696;8.662;2023-12-20T12:12:31;6.10;1.00
11894;DHT22;6006;49.696;8.662;2023-12-20T12:14:59;6.00;1.00
11894;DHT22;6006;49.696;8.662;2023-12-20T12:17:27;6.10;1.00
11894;DHT22;6006;49.696;8.662;2023-12-20T12:20:02;6.10;1.00
11894;DHT22;6006;49.696;8.662;2023-12-20T12:22:30;6.10;1.00
11894;DHT22;6006;49.696;8.662;2023-12-20T12:24:59;6.10;1.00
11894;DHT22;6006;49.696;8.662;2023-12-20T12:27:27;6.00;1.00
11894;DHT22;6006;49.696;8.662;2023-12-20T12:30:00;6.00;1.00
11894;DHT22;6006;49.696;8.662;2023-12-20T12:32:29;6.00;1.00
11894;DHT22;6006;49.696;8.662;2023-12-20T12:34:56;6.00;1.00
11894;DHT22;6006;49.696;8.662;2023-12-20T12:37:23;6.00;1.00
11894;DHT22;6006;49.696;8.662;2023-12-20T12:39:53;6.00;1.00
11894;DHT22;6006;49.696;8.662;2023-12-20T12:42:20;6.00;1.00
11894;DHT22;6006;49.696;8.662;2023-12-20T12:44:51;6.00;1.00
11894;DHT22;6006;49.696;8.662;2023-12-20T12:47:18;6.00;1.00
11894;DHT22;6006;49.696;8.662;2023-12-20T12:49:46;6.00;1.00
11894;DHT22;6006;49.696;8.662;2023-12-20T12:52:13;6.00;1.00
11894;DHT22;6006;49.696;8.662;2023-12-20T12:54:40;6.00;1.00
11894;DHT22;6006;49.696;8.662;2023-12-20T12:57:08;6.00;1.00
11894;DHT22;6006;49.696;8.662;2023-12-20T12:59:35;6.10;1.00
11894;DHT22;6006;49.696;8.662;2023-12-20T13:02:01;6.10;99.90
11894;DHT22;6006;49.696;8.662;2023-12-20T13:04:29;6.10;99.90
11894;DHT22;6006;49.696;8.662;2023-12-20T13:06:57;6.20;1.00
11894;DHT22;6006;49.696;8.662;2023-12-20T13:09:24;6.10;1.00
11894;DHT22;6006;49.696;8.662;2023-12-20T13:11:51;6.10;1.00
11894;DHT22;6006;49.696;8.662;2023-12-20T13:14:18;6.10;1.00
11894;DHT22;6006;49.696;8.662;2023-12-20T13:16:45;6.10;1.00
11894;DHT22;6006;49.696;8.662;2023-12-20T13:19:12;6.00;1.00
11894;DHT22;6006;49.696;8.662;2023-12-20T13:21:39;6.00;1.00
11894;DHT22;6006;49.696;8.662;2023-12-20T13:24:07;6.10;99.90
11894;DHT22;6006;49.696;8.662;2023-12-20T13:26:34;6.20;99.90
11894;DHT22;6006;49.696;8.662;2023-12-20T13:29:01;6.20;99.90
11894;DHT22;6006;49.696;8.662;2023-12-20T13:31:28;6.20;99.90
11894;DHT22;6006;49.696;8.662;2023-12-20T13:33:55;6.30;99.90
11894;DHT22;6006;49.696;8.662;2023-12-20T13:36:22;6.30;99.90
11894;DHT22;6006;49.696;8.662;2023-12-20T13:38:49;6.40;99.90
11894;DHT22;6006;49.696;8.662;2023-12-20T13:41:17;6.40;99.90
11894;DHT22;6006;49.696;8.662;2023-12-20T13:43:44;6.40;1.00
11894;DHT22;6006;49.696;8.662;2023-12-20T13:46:11;6.40;1.00
11894;DHT22;6006;49.696;8.662;2023-12-20T13:48:39;6.40;86.50
11894;DHT22;6006;49.696;8.662;2023-12-20T13:51:10;6.40;97.50
11894;DHT22;6006;49.696;8.662;2023-12-20T13:53:37;6.50;1.00
11894;DHT22;6006;49.696;8.662;2023-12-20T13:56:06;6.50;1.00
11894;DHT22;6006;49.696;8.662;2023-12-20T13:58:35;6.60;1.00
11894;DHT22;6006;49.696;8.662;2023-12-20T14:01:02;6.60;99.90
11894;DHT22;6006;49.696;8.662;2023-12-20T14:03:29;6.60;1.00
11894;DHT22;6006;49.696;8.662;2023-12-20T14:05:56;6.60;1.00
11894;DHT22;6006;49.696;8.662;2023-12-20T14:08:23;6.60;99.90
11894;DHT22;6006;49.696;8.662;2023-12-20T14:10:50;6.70;99.90
11894;DHT22;6006;49.696;8.662;2023-12-20T14:13:17;6.60;1.00
11894;DHT22;6006;49.696;8.662;2023-12-20T14:15:46;6.70;1.00
11894;DHT22;6006;49.696;8.662;2023-12-20T14:18:15;6.60;1.00
11894;DHT22;6006;49.696;8.662;2023-12-20T14:20:42;6.60;1.00
11894;DHT22;6006;49.696;8.662;2023-12-20T14:23:10;6.60;99.90
11894;DHT22;6006;49.696;8.662;2023-12-20T14:25:37;6.60;99.90
11894;DHT22;6006;49.696;8.662;2023-12-20T14:28:04;6.60;99.90
11894;DHT22;6006;49.696;8.662;2023-12-20T14:30:31;6.50;1.00
11894;DHT22;6006;49.696;8.662;2023-12-20T14:32:59;6.50;1.00
11894;DHT22;6006;49.696;8.662;2023-12-20T14:35:26;6.50;1.00
11894;DHT22;6006;49.696;8.662;2023-12-20T14:37:53;6.60;99.90
11894;DHT22;6006;49.696;8.662;2023-12-20T14:40:20;6.50;99.90
11894;DHT22;6006;49.696;8.662;2023-12-20T14:42:47;6.50;67.80
11894;DHT22;6006;49.696;8.662;2023-12-20T14:45:14;6.50;1.00
11894;DHT22;6006;49.696;8.662;2023-12-20T14:47:41;6.50;99.90
11894;DHT22;6006;49.696;8.662;2023-12-20T14:50:10;6.40;99.90
11894;DHT22;6006;49.696;8.662;2023-12-20T14:52:43;6.40;1.00
11894;DHT22;6006;49.696;8.662;2023-12-20T14:55:10;6.40;1.00
11894;DHT22;6006;49.696;8.662;2023-12-20T14:57:37;6.40;99.90
11894;DHT22;6006;49.696;8.662;2023-12-20T15:00:06;6.40;99.90
11894;DHT22;6006;49.696;8.662;2023-12-20T15:02:33;6.40;1.00
11894;DHT22;6006;49.696;8.662;2023-12-20T15:04:59;6.40;99.90
11894;DHT22;6006;49.696;8.662;2023-12-20T15:07:28;6.30;1.00
11894;DHT22;6006;49.696;8.662;2023-12-20T15:09:55;6.40;99.90
11894;DHT22;6006;49.696;8.662;2023-12-20T15:12:22;6.30;1.00
11894;DHT22;6006;49.696;8.662;2023-12-20T15:14:49;6.30;1.00
11894;DHT22;6006;49.696;8.662;2023-12-20T15:17:16;6.30;1.00
11894;DHT22;6006;49.696;8.662;2023-12-20T15:19:43;6.30;1.00
11894;DHT22;6006;49.696;8.662;2023-12-20T15:22:10;6.30;99.90
11894;DHT22;6006;49.696;8.662;2023-12-20T15:24:39;6.30;1.00
11894;DHT22;6006;49.696;8.662;2023-12-20T15:27:08;6.20;1.00
11894;DHT22;6006;49.696;8.662;2023-12-20T15:29:35;6.30;1.00
11894;DHT22;6006;49.696;8.662;2023-12-20T15:32:03;6.30;76.10
11894;DHT22;6006;49.696;8.662;2023-12-20T15:34:30;6.40;21.00
11894;DHT22;6006;49.696;8.662;2023-12-20T15:36:57;6.40;99.90
11894;DHT22;6006;49.696;8.662;2023-12-20T15:39:24;6.40;88.90
11894;DHT22;6006;49.696;8.662;2023-12-20T15:41:52;6.30;99.90
11894;DHT22;6006;49.696;8.662;2023-12-20T15:44:19;6.30;99.90
11894;DHT22;6006;49.696;8.662;2023-12-20T15:46:46;6.30;1.00
11894;DHT22;6006;49.696;8.662;2023-12-20T15:49:13;6.30;1.00
11894;DHT22;6006;49.696;8.662;2023-12-20T15:51:42;6.30;1.00
11894;DHT22;6006;49.696;8.662;2023-12-20T15:54:09;6.30;99.90
11894;DHT22;6006;49.696;8.662;2023-12-20T15:56:36;6.30;99.90
11894;DHT22;6006;49.696;8.662;2023-12-20T15:59:07;6.40;99.90
11894;DHT22;6006;49.696;8.662;2023-12-20T16:01:35;6.30;1.00
11894;DHT22;6006;49.696;8.662;2023-12-20T16:04:02;6.30;1.00
11894;DHT22;6006;49.696;8.662;2023-12-20T16:06:29;6.20;1.00